TVS4583 LFBT-EGAA
Flight info
| Callsign | TVS4583 |
|---|---|
| Flight time | N/A |
| Altitude | 36000 |
| Route | USAKU DCT AGN DCT SECHE DCT UVELI DCT CNA DCT MANAK DCT MUREL DCT NOZHU/N0437F350 DCT SHIRI/N0433F340 DCT UNFIT DCT PENWU DCT NICXI DCT PEMOB DCT VATRY DCT DUB N34 BELZU |
| Aircraft | B738/M-SDFGHIJ1LORVWXYZ/LB1 |
Departure
| Time | 2026-04-29 17:46 |
|---|---|
| Airport | Tarbes-Lourdes-Pyrénées Airport (LFBT) |
Arrival
| Time | N/A |
|---|---|
| Airport | Belfast International Airport (EGAA) |
| Time | Latitude | Longitude | Altitude | Speed | Heading |
|---|---|---|---|---|---|
| 2026-04-29 17:10 | 43.18481 | 0.00363 | 1195 ft | 0 kts | 15° |
| 2026-04-29 17:37 | 43.18480 | 0.00363 | 1195 ft | 2 kts | 15° |
| 2026-04-29 17:37 | 43.18458 | 0.00355 | 1195 ft | 3 kts | 12° |
| 2026-04-29 17:37 | 43.18435 | 0.00349 | 1195 ft | 3 kts | 4° |
| 2026-04-29 17:37 | 43.18413 | 0.00351 | 1196 ft | 3 kts | 336° |
| 2026-04-29 17:38 | 43.18400 | 0.00364 | 1196 ft | 1 kts | 291° |
| 2026-04-29 17:40 | 43.18404 | 0.00350 | 1196 ft | 3 kts | 286° |
| 2026-04-29 17:40 | 43.18407 | 0.00298 | 1196 ft | 8 kts | 275° |
| 2026-04-29 17:40 | 43.18421 | 0.00214 | 1197 ft | 10 kts | 289° |
| 2026-04-29 17:40 | 43.18421 | 0.00127 | 1197 ft | 9 kts | 234° |
| 2026-04-29 17:41 | 43.18368 | 0.00078 | 1199 ft | 9 kts | 209° |
| 2026-04-29 17:41 | 43.18313 | 0.00035 | 1201 ft | 9 kts | 209° |
| 2026-04-29 17:41 | 43.18243 | -0.00018 | 1204 ft | 14 kts | 208° |
| 2026-04-29 17:41 | 43.18149 | -0.00089 | 1207 ft | 17 kts | 209° |
| 2026-04-29 17:42 | 43.18034 | -0.00177 | 1211 ft | 20 kts | 209° |
| 2026-04-29 17:42 | 43.17903 | -0.00276 | 1215 ft | 23 kts | 208° |
| 2026-04-29 17:42 | 43.17756 | -0.00388 | 1219 ft | 24 kts | 209° |
| 2026-04-29 17:42 | 43.17613 | -0.00490 | 1223 ft | 23 kts | 206° |
| 2026-04-29 17:43 | 43.17469 | -0.00569 | 1227 ft | 22 kts | 201° |
| 2026-04-29 17:43 | 43.17327 | -0.00641 | 1227 ft | 21 kts | 200° |
| 2026-04-29 17:43 | 43.17190 | -0.00711 | 1253 ft | 21 kts | 200° |
| 2026-04-29 17:43 | 43.17056 | -0.00779 | 1251 ft | 20 kts | 200° |
| 2026-04-29 17:44 | 43.16926 | -0.00844 | 1257 ft | 20 kts | 200° |
| 2026-04-29 17:44 | 43.16801 | -0.00908 | 1258 ft | 19 kts | 200° |
| 2026-04-29 17:44 | 43.16684 | -0.00982 | 1263 ft | 18 kts | 215° |
| 2026-04-29 17:44 | 43.16592 | -0.01098 | 1269 ft | 18 kts | 234° |
| 2026-04-29 17:45 | 43.16596 | -0.01225 | 1265 ft | 11 kts | 305° |
| 2026-04-29 17:45 | 43.16666 | -0.01242 | 1265 ft | 12 kts | 21° |
| 2026-04-29 17:45 | 43.16783 | -0.01182 | 1259 ft | 38 kts | 20° |
| 2026-04-29 17:45 | 43.17270 | -0.00935 | 1248 ft | 109 kts | 20° |
| 2026-04-29 17:46 | 43.18183 | -0.00470 | 1217 ft | 168 kts | 20° |
| 2026-04-29 17:46 | 43.19324 | 0.00099 | 1781 ft | 172 kts | 22° |
| 2026-04-29 17:46 | 43.20463 | 0.00683 | 2462 ft | 180 kts | 21° |
| 2026-04-29 17:46 | 43.21699 | 0.01295 | 2945 ft | 201 kts | 21° |
| 2026-04-29 17:47 | 43.23076 | 0.02006 | 3311 ft | 218 kts | 25° |
| 2026-04-29 17:47 | 43.24550 | 0.02615 | 3790 ft | 234 kts | 7° |
| 2026-04-29 17:47 | 43.26247 | 0.02319 | 4159 ft | 252 kts | 348° |
| 2026-04-29 17:47 | 43.28018 | 0.01698 | 4572 ft | 274 kts | 346° |
| 2026-04-29 17:48 | 43.29886 | 0.01000 | 5273 ft | 282 kts | 347° |
| 2026-04-29 17:48 | 43.31792 | 0.00303 | 6122 ft | 285 kts | 347° |